Time;durP1;ratioP1;P1;durP2;ratioP2;P2;SDS_P1;SDS_P2;PMS_P1;PMS_P2;Temp;Humidity;BMP_temperature;BMP_pressure;BME280_temperature;BME280_humidity;BME280_pressure;Samples;Min_cycle;Max_cycle;Signal;HPM_P1;HPM_P2
2023/11/18 00:01:43;;;;;;;;;;;8.50;75.20;;;;;;4977584;28;87951;-60
2023/11/18 00:04:15;;;;;;;;;;;8.50;75.10;;;;;;4978055;28;86976;-60
2023/11/18 00:06:44;;;;;;;;;;;8.50;75.10;;;;;;4978470;28;86952;-60
2023/11/18 00:09:15;;;;;;;;;;;8.50;75.10;;;;;;4974972;28;86925;-60
2023/11/18 00:11:42;;;;;;;;;;;8.50;75.10;;;;;;4977962;28;87631;-60
2023/11/18 00:14:07;;;;;;;;;;;8.50;75.10;;;;;;4974703;28;87035;-60
2023/11/18 00:16:34;;;;;;;;;;;8.50;75.10;;;;;;4979636;28;87081;-60
2023/11/18 00:18:59;;;;;;;;;;;8.50;75.00;;;;;;4976219;28;86797;-60
2023/11/18 00:21:25;;;;;;;;;;;8.50;75.00;;;;;;4978783;28;87371;-60
2023/11/18 00:23:51;;;;;;;;;;;8.50;75.00;;;;;;4977195;28;89003;-60
2023/11/18 00:26:16;;;;;;;;;;;8.50;75.10;;;;;;4977082;28;87145;-60
2023/11/18 00:28:42;;;;;;;;;;;8.50;75.00;;;;;;4976257;28;87074;-60
2023/11/18 00:31:07;;;;;;;;;;;8.50;75.00;;;;;;4977847;28;87991;-60
2023/11/18 00:33:33;;;;;;;;;;;8.50;74.90;;;;;;4974251;28;87544;-61
2023/11/18 00:36:00;;;;;;;;;;;8.50;74.90;;;;;;4974387;28;86921;-60
2023/11/18 00:38:26;;;;;;;;;;;8.50;74.90;;;;;;4980842;28;87722;-60
2023/11/18 00:40:51;;;;;;;;;;;8.50;74.90;;;;;;4978870;28;86984;-61
2023/11/18 00:43:17;;;;;;;;;;;8.50;75.00;;;;;;4979385;28;87990;-60
2023/11/18 00:45:43;;;;;;;;;;;8.50;74.90;;;;;;4976693;28;87022;-59
2023/11/18 00:48:09;;;;;;;;;;;8.50;74.70;;;;;;4956038;28;88132;-61
2023/11/18 00:50:35;;;;;;;;;;;8.40;74.60;;;;;;4977364;28;88201;-61
2023/11/18 00:53:00;;;;;;;;;;;8.40;74.70;;;;;;4980894;28;87877;-60
2023/11/18 00:55:26;;;;;;;;;;;8.40;74.60;;;;;;4975656;28;87266;-60
2023/11/18 00:57:52;;;;;;;;;;;8.40;74.60;;;;;;4977683;28;88162;-60
2023/11/18 01:00:21;;;;;;;;;;;8.40;74.50;;;;;;4978361;28;86975;-61
2023/11/18 01:02:48;;;;;;;;;;;8.40;74.50;;;;;;4980201;28;87538;-60
2023/11/18 01:05:14;;;;;;;;;;;8.40;74.50;;;;;;4977330;28;86256;-60
2023/11/18 01:07:40;;;;;;;;;;;8.40;74.40;;;;;;4975205;28;87189;-61
2023/11/18 01:10:07;;;;;;;;;;;8.40;74.30;;;;;;4978290;28;87708;-61
2023/11/18 01:12:32;;;;;;;;;;;8.40;74.40;;;;;;4977784;28;87908;-60
2023/11/18 01:14:58;;;;;;;;;;;8.40;74.40;;;;;;4976426;28;87790;-59
2023/11/18 01:17:23;;;;;;;;;;;8.40;74.30;;;;;;4980540;28;87471;-61
2023/11/18 01:19:49;;;;;;;;;;;8.40;74.20;;;;;;4979430;28;87034;-61
2023/11/18 01:22:15;;;;;;;;;;;8.30;74.10;;;;;;4981358;28;86937;-60
2023/11/18 01:24:40;;;;;;;;;;;8.30;74.20;;;;;;4981032;28;87091;-60
2023/11/18 01:27:09;;;;;;;;;;;8.30;74.20;;;;;;4983649;28;86922;-60
2023/11/18 01:29:35;;;;;;;;;;;8.30;74.20;;;;;;4979159;28;88035;-60
2023/11/18 01:32:08;;;;;;;;;;;8.30;74.20;;;;;;4977881;28;87055;-60
2023/11/18 01:34:34;;;;;;;;;;;8.30;74.10;;;;;;4982319;28;86938;-60
2023/11/18 01:37:00;;;;;;;;;;;8.30;74.10;;;;;;4980626;28;87972;-60
2023/11/18 01:39:26;;;;;;;;;;;8.30;74.00;;;;;;4977747;28;86890;-61
2023/11/18 01:41:52;;;;;;;;;;;8.30;73.90;;;;;;4981512;28;88360;-60
2023/11/18 01:44:19;;;;;;;;;;;8.30;73.80;;;;;;4981688;28;88712;-60
2023/11/18 01:46:45;;;;;;;;;;;8.30;73.80;;;;;;4976770;28;86954;-60
2023/11/18 01:49:14;;;;;;;;;;;8.30;74.00;;;;;;4979744;28;88547;-60
2023/11/18 01:51:45;;;;;;;;;;;8.30;74.00;;;;;;4978190;28;86991;-61
2023/11/18 01:54:14;;;;;;;;;;;8.30;74.50;;;;;;4981899;28;86791;-61
2023/11/18 01:56:43;;;;;;;;;;;8.30;74.10;;;;;;4979858;28;88361;-61
2023/11/18 01:59:10;;;;;;;;;;;8.30;74.00;;;;;;4979083;28;87272;-61
2023/11/18 02:01:36;;;;;;;;;;;8.30;74.00;;;;;;4976897;28;87870;-60
2023/11/18 02:04:01;;;;;;;;;;;8.20;73.90;;;;;;4983473;28;87000;-59
2023/11/18 02:06:27;;;;;;;;;;;8.20;74.00;;;;;;4978585;28;86988;-60
2023/11/18 02:08:53;;;;;;;;;;;8.20;73.90;;;;;;4979092;28;88515;-59
2023/11/18 02:11:19;;;;;;;;;;;8.20;73.90;;;;;;4980696;28;86967;-61
2023/11/18 02:13:47;;;;;;;;;;;8.20;73.90;;;;;;4977302;28;86936;-60
2023/11/18 02:16:14;;;;;;;;;;;8.20;74.10;;;;;;4977788;28;86912;-60
2023/11/18 02:18:40;;;;;;;;;;;8.20;74.00;;;;;;4980480;28;86315;-63
2023/11/18 02:21:08;;;;;;;;;;;8.20;74.00;;;;;;4977292;28;87092;-60
2023/11/18 02:23:33;;;;;;;;;;;8.20;74.00;;;;;;4974432;28;87962;-60
2023/11/18 02:26:01;;;;;;;;;;;8.20;73.80;;;;;;4963971;28;88804;-59
2023/11/18 02:28:27;;;;;;;;;;;8.20;74.00;;;;;;4976312;28;87489;-61
2023/11/18 02:30:59;;;;;;;;;;;8.20;73.90;;;;;;4978965;28;87006;-61
2023/11/18 02:33:29;;;;;;;;;;;8.10;74.00;;;;;;4979721;28;86981;-59
2023/11/18 02:36:02;;;;;;;;;;;8.10;73.80;;;;;;4979414;28;88658;-57
2023/11/18 02:38:36;;;;;;;;;;;8.10;73.80;;;;;;4977044;28;87613;-60
2023/11/18 02:41:04;;;;;;;;;;;8.10;73.60;;;;;;4977734;28;86897;-60
2023/11/18 02:43:30;;;;;;;;;;;8.10;73.60;;;;;;4979703;28;87883;-61
2023/11/18 02:45:56;;;;;;;;;;;8.10;73.60;;;;;;4980162;28;87054;-59
2023/11/18 02:48:23;;;;;;;;;;;8.10;73.60;;;;;;4979974;28;86957;-61
2023/11/18 02:50:49;;;;;;;;;;;8.10;73.40;;;;;;4976694;28;87982;-60
2023/11/18 02:53:14;;;;;;;;;;;8.10;73.20;;;;;;4979102;28;88103;-58
2023/11/18 02:55:40;;;;;;;;;;;8.10;73.20;;;;;;4978846;28;88435;-60
2023/11/18 02:58:07;;;;;;;;;;;8.10;73.10;;;;;;4977373;28;87014;-60
2023/11/18 03:00:38;;;;;;;;;;;8.10;73.00;;;;;;4977553;28;87327;-60
2023/11/18 03:03:03;;;;;;;;;;;8.10;73.90;;;;;;4979558;28;88484;-60
2023/11/18 03:05:30;;;;;;;;;;;8.00;73.30;;;;;;4981589;28;88440;-60
2023/11/18 03:07:57;;;;;;;;;;;8.10;73.30;;;;;;4979623;28;88006;-61
2023/11/18 03:10:23;;;;;;;;;;;8.10;73.20;;;;;;4981840;28;88634;-60
2023/11/18 03:12:49;;;;;;;;;;;8.10;73.10;;;;;;4979033;28;87285;-60
2023/11/18 03:15:16;;;;;;;;;;;8.00;73.20;;;;;;4976512;28;88976;-60
2023/11/18 03:17:45;;;;;;;;;;;8.00;73.30;;;;;;4976630;28;86955;-60
2023/11/18 03:20:14;;;;;;;;;;;8.00;73.20;;;;;;4976529;28;87016;-60
2023/11/18 03:22:40;;;;;;;;;;;8.00;73.30;;;;;;4976964;28;87894;-61
2023/11/18 03:25:07;;;;;;;;;;;8.00;73.50;;;;;;4978700;28;87025;-61
2023/11/18 03:27:33;;;;;;;;;;;7.90;73.40;;;;;;4976147;28;87299;-60
2023/11/18 03:29:58;;;;;;;;;;;7.90;73.40;;;;;;4977829;28;87504;-60
2023/11/18 03:32:24;;;;;;;;;;;7.90;73.50;;;;;;4981339;28;86300;-61
2023/11/18 03:34:49;;;;;;;;;;;8.00;73.30;;;;;;4977925;28;87895;-61
2023/11/18 03:37:15;;;;;;;;;;;8.00;73.10;;;;;;4975001;28;87079;-61
2023/11/18 03:39:41;;;;;;;;;;;8.00;73.00;;;;;;4977370;28;88139;-60
2023/11/18 03:42:08;;;;;;;;;;;8.00;73.00;;;;;;4977827;28;87423;-60
2023/11/18 03:44:33;;;;;;;;;;;8.00;72.80;;;;;;4975852;28;87247;-60
2023/11/18 03:46:59;;;;;;;;;;;8.00;72.50;;;;;;4978758;28;87805;-60
2023/11/18 03:49:25;;;;;;;;;;;8.00;72.40;;;;;;4976888;28;87815;-60
2023/11/18 03:51:50;;;;;;;;;;;8.00;72.10;;;;;;4976187;28;87069;-60
2023/11/18 03:54:16;;;;;;;;;;;8.00;72.10;;;;;;4977878;28;87045;-62
2023/11/18 03:56:41;;;;;;;;;;;8.00;72.10;;;;;;4978092;28;86342;-61
2023/11/18 03:59:07;;;;;;;;;;;7.90;72.10;;;;;;4976880;28;86994;-61
2023/11/18 04:01:32;;;;;;;;;;;7.90;71.90;;;;;;4977776;28;87790;-60
2023/11/18 04:03:58;;;;;;;;;;;7.90;72.10;;;;;;4974689;28;88024;-60
2023/11/18 04:06:24;;;;;;;;;;;7.90;72.10;;;;;;4976082;28;87744;-61
2023/11/18 04:08:50;;;;;;;;;;;7.90;72.30;;;;;;4976581;28;86976;-60
2023/11/18 04:11:16;;;;;;;;;;;7.90;72.10;;;;;;4978128;28;87113;-59
2023/11/18 04:13:42;;;;;;;;;;;7.90;71.90;;;;;;4978049;28;87014;-61
2023/11/18 04:16:15;;;;;;;;;;;7.90;71.90;;;;;;4977686;28;86897;-60
2023/11/18 04:18:41;;;;;;;;;;;7.90;71.70;;;;;;4977918;28;86982;-59
2023/11/18 04:21:08;;;;;;;;;;;7.80;71.90;;;;;;4975502;28;87104;-61
2023/11/18 04:23:37;;;;;;;;;;;7.90;72.00;;;;;;4976831;28;87031;-60
2023/11/18 04:26:03;;;;;;;;;;;7.90;71.80;;;;;;4977862;28;88020;-59
2023/11/18 04:28:29;;;;;;;;;;;7.80;72.00;;;;;;4974329;28;88638;-61
2023/11/18 04:30:55;;;;;;;;;;;7.80;72.00;;;;;;4974843;28;87080;-60
2023/11/18 04:33:21;;;;;;;;;;;7.80;71.90;;;;;;4976386;28;87097;-60
2023/11/18 04:35:47;;;;;;;;;;;7.80;71.80;;;;;;4980376;28;87684;-60
2023/11/18 04:38:12;;;;;;;;;;;7.80;71.80;;;;;;4975671;28;86965;-60
2023/11/18 04:40:38;;;;;;;;;;;7.80;71.50;;;;;;4978429;28;86973;-61
2023/11/18 04:43:04;;;;;;;;;;;7.80;71.70;;;;;;4975821;28;87580;-60
2023/11/18 04:45:30;;;;;;;;;;;7.80;71.40;;;;;;4975254;28;86932;-61
2023/11/18 04:47:56;;;;;;;;;;;7.70;71.40;;;;;;4977312;28;87746;-61
2023/11/18 04:50:22;;;;;;;;;;;7.80;71.60;;;;;;4979956;28;87395;-58
2023/11/18 04:52:47;;;;;;;;;;;7.80;71.40;;;;;;4977909;28;87845;-61
2023/11/18 04:55:13;;;;;;;;;;;7.70;71.40;;;;;;4985038;28;87456;-60
2023/11/18 04:57:39;;;;;;;;;;;7.70;71.40;;;;;;4982063;28;87498;-61
2023/11/18 05:00:10;;;;;;;;;;;7.70;71.70;;;;;;4978019;28;88765;-60
2023/11/18 05:02:39;;;;;;;;;;;7.60;71.90;;;;;;4978587;28;86883;-60
2023/11/18 05:05:06;;;;;;;;;;;7.60;72.10;;;;;;4980076;28;86883;-60
2023/11/18 05:07:31;;;;;;;;;;;7.60;72.10;;;;;;4981000;28;86937;-61
2023/11/18 05:09:57;;;;;;;;;;;7.60;72.10;;;;;;4981773;28;86348;-61
2023/11/18 05:12:23;;;;;;;;;;;7.60;72.20;;;;;;4978611;28;86893;-61
2023/11/18 05:14:49;;;;;;;;;;;7.60;72.10;;;;;;4979652;28;87746;-59
2023/11/18 05:17:15;;;;;;;;;;;7.60;72.10;;;;;;4979600;28;87968;-60
2023/11/18 05:19:42;;;;;;;;;;;7.60;72.00;;;;;;4980632;28;87889;-61
2023/11/18 05:22:07;;;;;;;;;;;7.60;72.00;;;;;;4980232;28;87031;-60
2023/11/18 05:24:33;;;;;;;;;;;7.60;72.10;;;;;;4979706;28;87046;-60
2023/11/18 05:27:01;;;;;;;;;;;7.50;72.30;;;;;;4978182;28;87718;-61
2023/11/18 05:29:27;;;;;;;;;;;7.50;72.30;;;;;;4980773;28;87622;-60
2023/11/18 05:31:54;;;;;;;;;;;7.50;72.30;;;;;;4980629;28;87645;-61
2023/11/18 05:34:20;;;;;;;;;;;7.50;72.30;;;;;;4979212;28;86891;-60
2023/11/18 05:36:46;;;;;;;;;;;7.50;72.30;;;;;;4978121;28;86923;-61
2023/11/18 05:39:12;;;;;;;;;;;7.50;72.20;;;;;;4981479;28;87022;-60
2023/11/18 05:41:40;;;;;;;;;;;7.50;72.20;;;;;;4980444;28;89690;-61
2023/11/18 05:44:09;;;;;;;;;;;7.50;71.90;;;;;;4980687;28;87889;-58
2023/11/18 05:46:34;;;;;;;;;;;7.50;72.00;;;;;;4977881;28;87663;-61
2023/11/18 05:49:07;;;;;;;;;;;7.50;72.10;;;;;;4978753;28;87042;-61
2023/11/18 05:51:33;;;;;;;;;;;7.50;72.10;;;;;;4980167;28;88459;-61
2023/11/18 05:53:58;;;;;;;;;;;7.50;72.20;;;;;;4977600;28;87038;-60
2023/11/18 05:56:25;;;;;;;;;;;7.50;72.20;;;;;;4978793;28;87016;-61
2023/11/18 05:58:53;;;;;;;;;;;7.40;71.90;;;;;;4980460;28;87394;-61
2023/11/18 06:01:19;;;;;;;;;;;7.50;71.90;;;;;;4981719;28;87674;-59
2023/11/18 06:03:45;;;;;;;;;;;7.50;71.80;;;;;;4985880;28;87097;-61
2023/11/18 06:06:11;;;;;;;;;;;7.50;71.90;;;;;;4978709;28;88381;-61
2023/11/18 06:08:43;;;;;;;;;;;7.40;71.90;;;;;;4981881;28;86728;-57
2023/11/18 06:11:13;;;;;;;;;;;7.40;72.00;;;;;;4987667;28;87713;-60
2023/11/18 06:13:42;;;;;;;;;;;7.40;71.90;;;;;;4981567;28;87697;-61
2023/11/18 06:16:20;;;;;;;;;;;7.40;71.80;;;;;;4979230;28;87154;-60
2023/11/18 06:18:46;;;;;;;;;;;7.40;71.80;;;;;;4966678;28;89482;-60
2023/11/18 06:21:13;;;;;;;;;;;7.40;71.90;;;;;;4979512;28;87624;-60
2023/11/18 06:23:38;;;;;;;;;;;7.40;71.90;;;;;;4981850;28;86314;-61
2023/11/18 06:26:04;;;;;;;;;;;7.30;71.90;;;;;;4978697;28;87606;-61
2023/11/18 06:28:30;;;;;;;;;;;7.40;71.80;;;;;;4983368;28;87105;-60
2023/11/18 06:30:55;;;;;;;;;;;7.30;71.80;;;;;;4978449;28;88369;-61
2023/11/18 06:33:23;;;;;;;;;;;7.30;71.90;;;;;;4984044;28;86907;-61
2023/11/18 06:35:49;;;;;;;;;;;7.30;71.90;;;;;;4985612;28;87042;-60
2023/11/18 06:38:18;;;;;;;;;;;7.30;71.90;;;;;;4975164;28;87064;-60
2023/11/18 06:40:45;;;;;;;;;;;7.30;72.00;;;;;;4978522;28;87714;-59
2023/11/18 06:43:11;;;;;;;;;;;7.30;72.00;;;;;;4980506;28;88435;-60
2023/11/18 06:45:37;;;;;;;;;;;7.30;72.00;;;;;;4981106;28;86933;-61
2023/11/18 06:48:05;;;;;;;;;;;7.30;72.10;;;;;;4979091;28;87020;-61
2023/11/18 06:50:31;;;;;;;;;;;7.30;71.90;;;;;;4982018;28;87037;-61
2023/11/18 06:53:00;;;;;;;;;;;7.30;72.00;;;;;;4979417;28;87608;-61
2023/11/18 06:55:26;;;;;;;;;;;7.30;71.90;;;;;;4976943;28;87952;-61
2023/11/18 06:57:53;;;;;;;;;;;7.30;72.00;;;;;;4984687;28;88570;-61
2023/11/18 07:00:21;;;;;;;;;;;7.20;72.30;;;;;;4975911;28;88855;-61
2023/11/18 07:02:47;;;;;;;;;;;7.30;71.80;;;;;;4979853;28;87554;-60
2023/11/18 07:05:14;;;;;;;;;;;7.30;71.60;;;;;;4979236;28;87055;-61
2023/11/18 07:07:40;;;;;;;;;;;7.30;71.60;;;;;;4982225;28;87765;-61
2023/11/18 07:10:06;;;;;;;;;;;7.30;71.60;;;;;;4980634;28;86929;-60
2023/11/18 07:12:33;;;;;;;;;;;7.20;71.70;;;;;;4979131;28;86943;-61
2023/11/18 07:15:00;;;;;;;;;;;7.20;71.90;;;;;;4975393;28;87031;-59
2023/11/18 07:17:26;;;;;;;;;;;7.20;72.00;;;;;;4975690;28;87692;-61
2023/11/18 07:19:51;;;;;;;;;;;7.20;72.00;;;;;;4983175;28;89233;-60
2023/11/18 07:22:17;;;;;;;;;;;7.20;71.80;;;;;;4977500;28;87026;-61
2023/11/18 07:24:43;;;;;;;;;;;7.20;71.80;;;;;;4976599;28;87034;-60
2023/11/18 07:27:11;;;;;;;;;;;7.20;71.90;;;;;;4980065;28;88199;-60
2023/11/18 07:29:37;;;;;;;;;;;7.10;71.90;;;;;;4983716;28;87079;-61
2023/11/18 07:32:05;;;;;;;;;;;7.10;72.00;;;;;;4977862;28;87672;-61
2023/11/18 07:34:32;;;;;;;;;;;7.10;72.00;;;;;;4979622;28;87451;-61
2023/11/18 07:36:58;;;;;;;;;;;7.10;71.90;;;;;;4978311;28;86956;-61
2023/11/18 07:39:35;;;;;;;;;;;7.10;71.70;;;;;;4977548;28;87740;-61
2023/11/18 07:42:01;;;;;;;;;;;7.10;71.60;;;;;;4976442;28;87286;-61
2023/11/18 07:44:27;;;;;;;;;;;7.10;71.80;;;;;;4976666;28;88130;-61
2023/11/18 07:46:52;;;;;;;;;;;7.10;71.80;;;;;;4974739;28;87752;-61
2023/11/18 07:49:18;;;;;;;;;;;7.10;71.80;;;;;;4978712;28;87105;-59
2023/11/18 07:51:43;;;;;;;;;;;7.10;71.80;;;;;;4979205;28;87415;-61
2023/11/18 07:54:10;;;;;;;;;;;7.00;71.80;;;;;;4976869;28;87086;-60
2023/11/18 07:56:36;;;;;;;;;;;7.00;72.40;;;;;;4974894;28;87025;-60
2023/11/18 07:59:03;;;;;;;;;;;7.00;72.00;;;;;;4975323;28;88563;-60
2023/11/18 08:01:29;;;;;;;;;;;7.00;71.80;;;;;;4977562;28;86244;-61
2023/11/18 08:03:54;;;;;;;;;;;7.00;71.80;;;;;;4977958;28;87442;-60
2023/11/18 08:06:20;;;;;;;;;;;7.00;71.90;;;;;;4975319;28;87960;-60
2023/11/18 08:08:47;;;;;;;;;;;7.00;72.00;;;;;;4978006;28;87962;-55
2023/11/18 08:11:13;;;;;;;;;;;7.00;71.80;;;;;;4994779;28;89151;-61
2023/11/18 08:13:39;;;;;;;;;;;7.00;71.70;;;;;;4979078;28;87195;-61
2023/11/18 08:16:07;;;;;;;;;;;7.00;71.70;;;;;;4975466;28;86887;-60
2023/11/18 08:18:32;;;;;;;;;;;7.00;71.70;;;;;;4992026;28;88437;-61
2023/11/18 08:20:59;;;;;;;;;;;7.00;71.60;;;;;;4984141;28;87384;-61
2023/11/18 08:23:27;;;;;;;;;;;7.00;71.70;;;;;;4977641;28;86992;-61
2023/11/18 08:25:53;;;;;;;;;;;6.90;71.60;;;;;;4976888;28;89458;-60
2023/11/18 08:28:19;;;;;;;;;;;6.90;71.80;;;;;;4981891;23;87365;-59
2023/11/18 08:30:44;;;;;;;;;;;6.90;71.60;;;;;;4991811;22;87996;-47
2023/11/18 08:33:10;;;;;;;;;;;6.90;71.80;;;;;;5007044;23;90214;-58
2023/11/18 08:38:12;;;;;;;;;;;6.80;71.90;;;;;;5657630;23;90239;-59
2023/11/18 08:40:38;;;;;;;;;;;6.80;71.90;;;;;;4997110;28;86928;-58
2023/11/18 08:43:07;;;;;;;;;;;6.90;71.80;;;;;;5030010;22;87583;-47
2023/11/18 08:45:34;;;;;;;;;;;6.80;71.70;;;;;;4980147;28;88659;-47
2023/11/18 08:50:31;;;;;;;;;;;6.80;71.80;;;;;;5003788;22;86154;-47
2023/11/18 08:52:59;;;;;;;;;;;6.80;71.80;;;;;;5044621;22;88810;-48
2023/11/18 08:58:15;;;;;;;;;;;6.70;71.90;;;;;;4976241;28;88500;-49
2023/11/18 09:03:25;;;;;;;;;;;6.70;71.90;;;;;;4977963;28;88280;-50
2023/11/18 09:05:57;;;;;;;;;;;6.70;72.00;;;;;;4980192;28;88413;-50
2023/11/18 09:08:23;;;;;;;;;;;6.70;72.00;;;;;;4976061;28;86971;-49
2023/11/18 09:10:49;;;;;;;;;;;6.70;71.90;;;;;;4975685;28;87012;-49
2023/11/18 09:13:15;;;;;;;;;;;6.70;72.00;;;;;;5015277;22;88532;-52
2023/11/18 09:15:40;;;;;;;;;;;6.70;71.80;;;;;;4982983;28;87113;-48
2023/11/18 09:18:09;;;;;;;;;;;6.70;71.80;;;;;;4988730;28;86965;-48
2023/11/18 09:20:35;;;;;;;;;;;6.70;71.90;;;;;;4985946;28;86941;-48
2023/11/18 09:23:01;;;;;;;;;;;6.60;71.90;;;;;;4985251;28;87966;-51
2023/11/18 09:25:27;;;;;;;;;;;6.60;72.00;;;;;;4985771;28;87404;-51
2023/11/18 09:27:53;;;;;;;;;;;6.60;71.80;;;;;;4985918;28;86956;-48
2023/11/18 09:30:19;;;;;;;;;;;6.60;71.80;;;;;;4985779;28;88005;-49
2023/11/18 09:32:47;;;;;;;;;;;6.60;71.90;;;;;;4981633;28;87692;-53
2023/11/18 09:35:13;;;;;;;;;;;6.60;71.80;;;;;;4986432;28;86946;-50
2023/11/18 09:37:40;;;;;;;;;;;6.60;71.80;;;;;;4989297;28;86922;-50
2023/11/18 09:40:11;;;;;;;;;;;6.60;71.90;;;;;;4991900;28;87831;-51
2023/11/18 09:42:38;;;;;;;;;;;6.60;71.80;;;;;;4988985;28;87388;-50
2023/11/18 09:45:05;;;;;;;;;;;6.60;71.90;;;;;;4988417;28;88337;-48
2023/11/18 09:47:39;;;;;;;;;;;6.60;71.90;;;;;;4988517;28;88011;-50
2023/11/18 09:50:10;;;;;;;;;;;6.50;71.90;;;;;;4989035;28;87714;-52
2023/11/18 09:52:41;;;;;;;;;;;6.60;71.80;;;;;;4988101;28;88634;-48
2023/11/18 09:55:14;;;;;;;;;;;6.50;71.80;;;;;;4986930;28;87058;-53
2023/11/18 09:57:43;;;;;;;;;;;6.50;71.90;;;;;;4985984;28;88713;-49
2023/11/18 10:00:20;;;;;;;;;;;6.60;71.70;;;;;;4983465;28;87066;-48
2023/11/18 10:02:47;;;;;;;;;;;6.60;71.40;;;;;;4987825;28;87089;-47
2023/11/18 10:05:13;;;;;;;;;;;6.60;71.70;;;;;;4988708;28;88033;-47
2023/11/18 10:07:40;;;;;;;;;;;6.60;71.40;;;;;;4988648;28;87023;-50
2023/11/18 10:10:14;;;;;;;;;;;6.60;71.50;;;;;;4987791;28;88109;-53
2023/11/18 10:12:57;;;;;;;;;;;6.60;71.40;;;;;;4985084;28;88769;-51
2023/11/18 10:15:24;;;;;;;;;;;6.60;71.40;;;;;;4978207;28;86956;-47
2023/11/18 10:20:51;;;;;;;;;;;6.60;71.20;;;;;;4953710;28;88256;-48
2023/11/18 10:23:20;;;;;;;;;;;6.50;71.20;;;;;;4976349;28;87019;-47
2023/11/18 10:25:53;;;;;;;;;;;6.50;71.40;;;;;;4970574;28;88470;-48
2023/11/18 10:28:36;;;;;;;;;;;6.50;71.20;;;;;;4978612;28;86987;-51
2023/11/18 10:31:06;;;;;;;;;;;6.50;71.20;;;;;;4975361;28;86851;-52
2023/11/18 10:33:32;;;;;;;;;;;6.50;71.30;;;;;;4976916;28;88745;-48
2023/11/18 10:35:58;;;;;;;;;;;6.50;71.30;;;;;;4980418;28;87009;-49
2023/11/18 10:38:26;;;;;;;;;;;6.50;71.30;;;;;;4978182;28;87938;-51
2023/11/18 10:40:55;;;;;;;;;;;6.50;71.30;;;;;;4978840;28;87533;-47
2023/11/18 10:43:24;;;;;;;;;;;6.50;71.20;;;;;;4976847;28;87063;-48
2023/11/18 10:46:03;;;;;;;;;;;6.50;71.10;;;;;;4980736;28;87958;-52
2023/11/18 10:48:30;;;;;;;;;;;6.40;71.10;;;;;;4973599;28;86916;-48
2023/11/18 10:50:57;;;;;;;;;;;6.40;70.90;;;;;;4966371;28;87029;-49
2023/11/18 10:53:25;;;;;;;;;;;6.40;71.10;;;;;;4975301;28;88318;-47
2023/11/18 10:55:51;;;;;;;;;;;6.40;71.10;;;;;;4973542;28;86219;-47
2023/11/18 10:58:17;;;;;;;;;;;6.40;71.20;;;;;;4971058;28;87061;-48
2023/11/18 11:00:48;;;;;;;;;;;6.40;71.10;;;;;;4978426;28;87351;-51
2023/11/18 11:03:14;;;;;;;;;;;6.40;71.10;;;;;;4969222;28;88065;-52
2023/11/18 11:05:42;;;;;;;;;;;6.40;71.10;;;;;;4979236;28;88867;-47
2023/11/18 11:08:08;;;;;;;;;;;6.40;70.90;;;;;;4976239;28;87808;-53
2023/11/18 11:10:35;;;;;;;;;;;6.40;70.90;;;;;;4975311;28;88146;-49
2023/11/18 11:13:04;;;;;;;;;;;6.30;71.10;;;;;;4972563;28;88445;-48
2023/11/18 11:15:31;;;;;;;;;;;6.30;70.90;;;;;;4977422;28;87017;-50
2023/11/18 11:18:08;;;;;;;;;;;6.40;71.00;;;;;;4976307;28;87279;-49
2023/11/18 11:20:41;;;;;;;;;;;6.30;70.90;;;;;;4973075;28;87818;-49
2023/11/18 11:23:10;;;;;;;;;;;6.30;71.00;;;;;;4964074;28;87732;-50
2023/11/18 11:25:36;;;;;;;;;;;6.30;71.00;;;;;;4977925;28;87114;-53
2023/11/18 11:28:13;;;;;;;;;;;6.30;70.90;;;;;;4971179;28;89787;-49
2023/11/18 11:30:44;;;;;;;;;;;6.30;71.10;;;;;;4973821;28;87115;-48
2023/11/18 11:33:22;;;;;;;;;;;6.30;71.20;;;;;;4975532;28;88494;-47
2023/11/18 11:35:57;;;;;;;;;;;6.30;71.00;;;;;;4971525;28;86950;-50
2023/11/18 11:38:24;;;;;;;;;;;6.30;71.00;;;;;;4966207;28;87747;-48
2023/11/18 11:40:52;;;;;;;;;;;6.30;71.40;;;;;;4976958;28;87539;-48
2023/11/18 11:43:21;;;;;;;;;;;6.20;71.10;;;;;;4973214;28;87069;-48
2023/11/18 11:45:55;;;;;;;;;;;6.20;71.70;;;;;;4973245;28;87968;-50
2023/11/18 11:48:28;;;;;;;;;;;6.20;71.20;;;;;;4973961;28;87626;-48
2023/11/18 11:50:56;;;;;;;;;;;6.20;71.00;;;;;;4971244;28;87216;-47
2023/11/18 11:53:25;;;;;;;;;;;6.30;70.90;;;;;;4980242;28;87812;-48
2023/11/18 11:55:52;;;;;;;;;;;6.20;70.90;;;;;;4974479;28;87045;-50
2023/11/18 11:58:33;;;;;;;;;;;6.20;70.80;;;;;;4976275;28;87008;-48
2023/11/18 12:01:07;;;;;;;;;;;6.20;70.90;;;;;;4969943;28;88556;-48
2023/11/18 12:03:38;;;;;;;;;;;6.20;70.80;;;;;;4968927;28;87772;-49
2023/11/18 12:06:07;;;;;;;;;;;6.20;70.80;;;;;;4972992;28;86888;-47
2023/11/18 12:08:39;;;;;;;;;;;6.20;70.80;;;;;;4968801;28;88495;-47
2023/11/18 12:11:09;;;;;;;;;;;6.20;70.90;;;;;;4979088;28;86245;-47
2023/11/18 12:13:39;;;;;;;;;;;6.20;70.80;;;;;;4976053;28;87112;-47
2023/11/18 12:16:05;;;;;;;;;;;6.20;70.90;;;;;;4974940;28;88556;-48
2023/11/18 12:18:36;;;;;;;;;;;6.20;70.90;;;;;;4969800;28;88612;-52
2023/11/18 12:21:03;;;;;;;;;;;6.20;70.80;;;;;;4975870;28;87643;-48
2023/11/18 12:23:30;;;;;;;;;;;6.20;70.80;;;;;;4974906;28;87035;-47
2023/11/18 12:25:57;;;;;;;;;;;6.10;70.80;;;;;;4969843;28;88238;-49
2023/11/18 12:28:30;;;;;;;;;;;6.20;70.80;;;;;;4973988;28;88748;-48
2023/11/18 12:30:57;;;;;;;;;;;6.10;70.80;;;;;;4978021;28;87009;-48
2023/11/18 12:33:23;;;;;;;;;;;6.20;70.80;;;;;;4976017;28;87834;-47
2023/11/18 12:35:52;;;;;;;;;;;6.10;70.80;;;;;;4975481;28;86712;-48
2023/11/18 12:38:24;;;;;;;;;;;6.10;70.70;;;;;;4968415;28;87226;-49
2023/11/18 12:40:52;;;;;;;;;;;6.10;70.90;;;;;;4973267;28;88470;-50
2023/11/18 12:43:23;;;;;;;;;;;6.10;70.90;;;;;;4974274;28;87986;-48
2023/11/18 12:46:19;;;;;;;;;;;6.10;70.80;;;;;;4966115;28;89041;-49
2023/11/18 12:48:48;;;;;;;;;;;6.10;70.80;;;;;;4964292;28;88510;-50
2023/11/18 12:51:19;;;;;;;;;;;5.90;71.60;;;;;;4973598;28;87000;-47
2023/11/18 12:53:53;;;;;;;;;;;5.90;70.60;;;;;;4973724;28;86983;-52
2023/11/18 12:56:23;;;;;;;;;;;5.90;70.80;;;;;;4974485;28;88770;-46
2023/11/18 12:58:49;;;;;;;;;;;6.00;70.00;;;;;;4977876;28;87012;-58
2023/11/18 13:01:15;;;;;;;;;;;6.00;70.60;;;;;;4975744;28;86805;-48
2023/11/18 13:03:45;;;;;;;;;;;6.00;68.50;;;;;;4974155;28;87095;-47
2023/11/18 13:06:14;;;;;;;;;;;6.00;67.00;;;;;;4975637;28;87856;-48
2023/11/18 13:08:40;;;;;;;;;;;5.90;68.00;;;;;;4970376;28;88378;-46
2023/11/18 13:11:08;;;;;;;;;;;5.90;68.80;;;;;;4970901;28;87500;-48
2023/11/18 13:13:34;;;;;;;;;;;6.00;69.40;;;;;;4979509;28;87490;-59
2023/11/18 13:15:59;;;;;;;;;;;6.10;69.70;;;;;;4976140;28;87487;-59
2023/11/18 13:18:26;;;;;;;;;;;6.10;70.20;;;;;;4966713;28;87079;-51
2023/11/18 13:20:58;;;;;;;;;;;6.10;70.30;;;;;;4977076;28;88802;-50
2023/11/18 13:23:27;;;;;;;;;;;6.10;70.70;;;;;;5040202;22;88132;-50
2023/11/18 13:25:59;;;;;;;;;;;6.10;68.30;;;;;;4979055;28;86583;-46
2023/11/18 13:28:26;;;;;;;;;;;6.10;66.60;;;;;;4970690;28;87927;-55
2023/11/18 13:33:27;;;;;;;;;;;6.00;67.10;;;;;;5060565;22;88992;-49
2023/11/18 13:35:53;;;;;;;;;;;6.10;66.70;;;;;;5017759;22;89588;-58
2023/11/18 13:38:18;;;;;;;;;;;6.00;66.30;;;;;;5017114;22;87103;-50
2023/11/18 13:40:45;;;;;;;;;;;5.90;65.50;;;;;;4996649;28;86933;-58
2023/11/18 13:43:11;;;;;;;;;;;5.80;65.30;;;;;;5003294;28;87405;-51
2023/11/18 13:45:36;;;;;;;;;;;5.80;65.60;;;;;;5004380;28;87120;-55
2023/11/18 13:48:02;;;;;;;;;;;5.80;65.30;;;;;;5005761;28;87464;-58
2023/11/18 13:50:28;;;;;;;;;;;5.90;65.80;;;;;;5005974;28;86293;-44
2023/11/18 13:52:54;;;;;;;;;;;5.90;66.00;;;;;;5004898;28;87691;-46
2023/11/18 13:55:27;;;;;;;;;;;5.80;66.20;;;;;;4998694;28;88711;-49
2023/11/18 13:57:57;;;;;;;;;;;5.70;65.20;;;;;;5001239;28;88474;-46
2023/11/18 14:00:26;;;;;;;;;;;5.60;66.30;;;;;;5004990;28;87935;-44
2023/11/18 14:02:56;;;;;;;;;;;5.70;66.30;;;;;;4996224;28;86984;-45
2023/11/18 14:05:21;;;;;;;;;;;5.60;66.10;;;;;;5008324;28;86957;-43
2023/11/18 14:07:48;;;;;;;;;;;5.60;65.70;;;;;;5004859;28;87356;-51
2023/11/18 14:16:21;;;;;;;;;;;5.60;66.40;;;;;;5054457;27;80299;-48
2023/11/18 14:18:47;;;;;;;;;;;5.60;67.00;;;;;;5047783;27;80484;-51
2023/11/18 14:21:14;;;;;;;;;;;5.50;67.20;;;;;;5049734;27;81449;-46
2023/11/18 14:23:39;;;;;;;;;;;5.50;66.70;;;;;;5046614;27;81831;-45
2023/11/18 14:26:07;;;;;;;;;;;5.40;67.40;;;;;;5055919;27;80547;-45
2023/11/18 14:28:34;;;;;;;;;;;5.50;67.60;;;;;;5048820;27;80317;-47
2023/11/18 14:31:04;;;;;;;;;;;5.60;68.60;;;;;;5050991;27;81634;-49
2023/11/18 14:33:33;;;;;;;;;;;5.70;68.60;;;;;;5055002;27;80100;-54
2023/11/18 14:36:00;;;;;;;;;;;5.70;68.70;;;;;;5046989;27;80419;-45
2023/11/18 14:38:26;;;;;;;;;;;5.70;68.40;;;;;;5047196;27;81607;-44
2023/11/18 14:40:53;;;;;;;;;;;5.80;66.90;;;;;;5054608;27;80275;-44
2023/11/18 14:43:19;;;;;;;;;;;5.70;67.60;;;;;;5043670;27;80345;-47
2023/11/18 14:45:44;;;;;;;;;;;5.70;68.60;;;;;;5053261;27;80361;-49
2023/11/18 14:48:10;;;;;;;;;;;5.70;69.40;;;;;;5055798;27;80147;-46
2023/11/18 14:50:35;;;;;;;;;;;5.80;69.50;;;;;;5056243;27;80550;-46
2023/11/18 14:53:02;;;;;;;;;;;5.80;69.40;;;;;;5047536;27;80750;-47
2023/11/18 14:55:29;;;;;;;;;;;5.80;69.60;;;;;;5043591;27;80858;-44